createdAt,value
2018-06-21T00:00:43.193Z,41.85
2018-06-21T00:01:43.665Z,41.84
2018-06-21T00:02:44.139Z,42.00
2018-06-21T00:03:44.661Z,41.70
2018-06-21T00:04:45.084Z,41.64
2018-06-21T00:05:45.559Z,41.63
2018-06-21T00:06:46.035Z,41.57
2018-06-21T00:07:46.504Z,41.53
2018-06-21T00:08:46.976Z,41.40
2018-06-21T00:09:47.449Z,41.36
2018-06-21T00:10:47.921Z,41.26
2018-06-21T00:11:48.392Z,41.42
2018-06-21T00:12:48.866Z,41.15
2018-06-21T00:13:49.389Z,41.15
2018-06-21T00:14:49.812Z,41.09
2018-06-21T00:15:50.285Z,40.89
2018-06-21T00:16:50.756Z,40.88
2018-06-21T00:17:51.229Z,40.91
2018-06-21T00:18:51.707Z,40.85
2018-06-21T00:19:52.174Z,40.88
2018-06-21T00:20:52.646Z,40.81
2018-06-21T00:21:53.120Z,40.81
2018-06-21T00:22:53.590Z,40.84
2018-06-21T00:23:54.064Z,40.74
2018-06-21T00:24:54.535Z,40.77
2018-06-21T00:25:55.009Z,40.80
2018-06-21T00:26:55.484Z,40.60
2018-06-21T00:27:55.952Z,40.73
2018-06-21T00:28:56.430Z,40.96
2018-06-21T00:29:56.898Z,40.79
2018-06-21T00:30:57.369Z,40.86
2018-06-21T00:31:57.841Z,41.18
2018-06-21T00:32:58.313Z,41.28
2018-06-21T00:33:58.835Z,41.25
2018-06-21T00:34:59.257Z,41.28
2018-06-21T00:35:59.728Z,41.37
2018-06-21T00:37:00.201Z,41.60
2018-06-21T00:38:00.674Z,41.63
2018-06-21T00:39:01.195Z,41.63
2018-06-21T00:40:01.620Z,41.82
2018-06-21T00:41:02.089Z,41.88
2018-06-21T00:42:02.560Z,41.75
2018-06-21T00:43:03.032Z,41.94
2018-06-21T00:44:03.504Z,41.71
2018-06-21T00:45:03.975Z,41.54
2018-06-21T00:46:04.448Z,41.67
2018-06-21T00:47:04.919Z,41.66
2018-06-21T00:48:05.389Z,41.66
2018-06-21T00:49:05.864Z,41.65
2018-06-21T00:50:06.334Z,41.75
2018-06-21T00:51:06.807Z,41.87
2018-06-21T00:52:07.278Z,41.58
2018-06-21T00:53:07.748Z,41.97
2018-06-21T00:54:08.220Z,41.93
2018-06-21T00:55:08.692Z,41.76
2018-06-21T00:56:09.162Z,41.76
2018-06-21T00:57:09.633Z,41.89
2018-06-21T00:58:10.107Z,42.12
2018-06-21T00:59:10.628Z,42.15
2018-06-21T01:00:11.049Z,42.14
2018-06-21T01:01:11.519Z,42.37
2018-06-21T01:02:11.997Z,42.60
2018-06-21T01:03:12.463Z,42.82
2018-06-21T01:04:12.985Z,42.98
2018-06-21T01:05:13.406Z,43.04
2018-06-21T01:06:13.884Z,43.11
2018-06-21T01:07:14.347Z,43.17
2018-06-21T01:08:14.818Z,42.97
2018-06-21T01:09:15.290Z,42.91
2018-06-21T01:10:15.761Z,42.91
2018-06-21T01:11:16.231Z,42.90
2018-06-21T01:12:16.704Z,42.84
2018-06-21T01:13:17.177Z,42.70
2018-06-21T01:14:17.647Z,42.57
2018-06-21T01:15:18.120Z,42.57
2018-06-21T01:16:18.590Z,42.44
2018-06-21T01:17:19.061Z,42.21
2018-06-21T01:18:19.533Z,42.17
2018-06-21T01:19:20.012Z,42.04
2018-06-21T01:20:20.478Z,41.84
2018-06-21T01:21:20.949Z,41.91
2018-06-21T01:22:21.423Z,41.84
2018-06-21T01:23:21.896Z,41.71
2018-06-21T01:24:22.420Z,41.61
2018-06-21T01:25:22.912Z,41.90
2018-06-21T01:26:23.315Z,42.06
2018-06-21T01:27:23.790Z,42.48
2018-06-21T01:28:24.263Z,42.74
2018-06-21T01:29:24.788Z,43.20
2018-06-21T01:30:25.212Z,43.00
2018-06-21T01:31:25.692Z,43.00
2018-06-21T01:32:26.161Z,43.26
2018-06-21T01:33:26.641Z,43.65
2018-06-21T01:34:27.112Z,43.87
2018-06-21T01:35:27.587Z,43.96
2018-06-21T01:36:28.063Z,44.12
2018-06-21T01:37:28.538Z,44.25
2018-06-21T01:38:29.019Z,44.38
2018-06-21T01:39:29.488Z,44.48
2018-06-21T01:40:29.964Z,44.34
2018-06-21T01:41:30.444Z,44.50
2018-06-21T01:42:30.917Z,44.86
2018-06-21T01:43:31.394Z,44.53
2018-06-21T01:44:31.923Z,44.72
2018-06-21T01:45:32.342Z,44.79
2018-06-21T01:46:32.820Z,44.79
2018-06-21T01:47:33.296Z,45.30
2018-06-21T01:48:33.772Z,44.97
2018-06-21T01:49:34.247Z,44.97
2018-06-21T01:50:34.724Z,44.78
2018-06-21T01:51:35.205Z,44.84
2018-06-21T01:52:35.671Z,44.84
2018-06-21T01:53:36.149Z,44.87
2018-06-21T01:54:36.674Z,44.96
2018-06-21T01:55:37.098Z,45.09
2018-06-21T01:56:37.572Z,44.89
2018-06-21T01:57:38.046Z,45.05
2018-06-21T01:58:38.521Z,45.08
2018-06-21T01:59:38.998Z,45.08
2018-06-21T02:00:39.472Z,45.14
2018-06-21T02:01:39.945Z,45.08
2018-06-21T02:02:40.421Z,45.17
2018-06-21T02:03:40.897Z,45.07
2018-06-21T02:04:41.370Z,44.81
2018-06-21T02:05:41.842Z,45.20
2018-06-21T02:06:42.364Z,44.74
2018-06-21T02:07:42.790Z,44.74
2018-06-21T02:08:43.266Z,44.87
2018-06-21T02:09:43.737Z,45.06
2018-06-21T02:10:44.211Z,44.99
2018-06-21T02:11:44.696Z,44.99
2018-06-21T02:12:45.158Z,45.18
2018-06-21T02:13:45.632Z,45.28
2018-06-21T02:14:46.103Z,45.53
2018-06-21T02:15:46.578Z,45.78
2018-06-21T02:16:47.050Z,45.94
2018-06-21T02:17:47.524Z,46.22
2018-06-21T02:18:47.997Z,46.67
2018-06-21T02:19:48.518Z,46.60
2018-06-21T02:20:48.944Z,46.66
2018-06-21T02:21:49.413Z,46.63
2018-06-21T02:22:49.886Z,46.85
2018-06-21T02:23:50.357Z,47.01
2018-06-21T02:24:50.829Z,47.20
2018-06-21T02:25:51.301Z,47.38
2018-06-21T02:26:51.774Z,47.54
2018-06-21T02:27:52.245Z,47.63
2018-06-21T02:28:52.717Z,47.69
2018-06-21T02:29:53.192Z,47.88
2018-06-21T02:30:53.661Z,47.85
2018-06-21T02:31:54.137Z,47.97
2018-06-21T02:32:54.604Z,48.10
2018-06-21T02:33:55.076Z,47.78
2018-06-21T02:34:55.548Z,47.65
2018-06-21T02:35:56.051Z,47.56
2018-06-21T02:36:56.491Z,47.43
2018-06-21T02:37:56.963Z,47.48
2018-06-21T02:38:57.435Z,47.45
2018-06-21T02:39:57.957Z,47.36
2018-06-21T02:40:58.384Z,47.51
2018-06-21T02:41:58.977Z,47.60
2018-06-21T02:42:59.320Z,47.63
2018-06-21T02:43:59.790Z,47.73
2018-06-21T02:45:00.261Z,47.72
2018-06-21T02:46:00.732Z,47.63
2018-06-21T02:47:01.205Z,47.56
2018-06-21T02:48:01.675Z,47.62
2018-06-21T02:49:02.146Z,48.03
2018-06-21T02:50:02.618Z,47.97
2018-06-21T02:51:03.089Z,47.93
2018-06-21T02:52:03.562Z,48.06
2018-06-21T02:53:04.034Z,48.15
2018-06-21T02:54:04.507Z,48.21
2018-06-21T02:55:05.028Z,48.27
2018-06-21T02:56:05.454Z,48.33
2018-06-21T02:57:05.922Z,48.36
2018-06-21T02:58:06.394Z,48.58
2018-06-21T02:59:06.873Z,48.73
2018-06-21T03:00:07.341Z,48.76
2018-06-21T03:01:07.814Z,48.32
2018-06-21T03:02:08.289Z,48.63
2018-06-21T03:03:08.769Z,48.66
2018-06-21T03:04:09.239Z,48.94
2018-06-21T03:05:09.760Z,48.69
2018-06-21T03:06:10.184Z,49.03
2018-06-21T03:07:10.660Z,48.93
2018-06-21T03:08:11.138Z,49.40
2018-06-21T03:09:11.610Z,49.15
2018-06-21T03:10:12.135Z,49.37
2018-06-21T03:11:12.560Z,49.36
2018-06-21T03:12:13.035Z,49.49
2018-06-21T03:13:13.512Z,49.52
2018-06-21T03:14:13.985Z,49.42
2018-06-21T03:15:14.514Z,49.42
2018-06-21T03:16:14.937Z,49.61
2018-06-21T03:17:15.421Z,49.82
2018-06-21T03:18:15.889Z,49.91
2018-06-21T03:19:16.363Z,50.03
2018-06-21T03:20:16.888Z,50.06
2018-06-21T03:21:17.314Z,50.31
2018-06-21T03:22:17.791Z,50.34
2018-06-21T03:23:18.265Z,50.25
2018-06-21T03:24:18.741Z,50.12
2018-06-21T03:25:19.216Z,50.46
2018-06-21T03:26:19.691Z,50.18
2018-06-21T03:27:20.166Z,50.95
2018-06-21T03:28:20.642Z,50.58
2018-06-21T03:29:21.116Z,50.52
2018-06-21T03:30:21.589Z,50.92
2018-06-21T03:31:22.065Z,50.70
2018-06-21T03:32:22.539Z,51.38
2018-06-21T03:33:23.013Z,50.66
2018-06-21T03:34:23.486Z,50.45
2018-06-21T03:35:23.963Z,50.41
2018-06-21T03:36:24.437Z,50.22
2018-06-21T03:37:24.909Z,50.13
2018-06-21T03:38:25.382Z,50.07
2018-06-21T03:39:25.858Z,50.00
2018-06-21T03:40:26.330Z,50.00
2018-06-21T03:41:26.803Z,50.25
2018-06-21T03:42:27.277Z,49.90
2018-06-21T03:43:27.753Z,49.81
2018-06-21T03:44:28.223Z,49.56
2018-06-21T03:45:28.750Z,49.18
2018-06-21T03:46:29.169Z,49.27
2018-06-21T03:47:29.644Z,49.80
2018-06-21T03:48:30.117Z,49.87
2018-06-21T03:49:30.588Z,49.62
2018-06-21T03:50:31.061Z,49.71
2018-06-21T03:51:31.533Z,49.99
2018-06-21T03:52:32.007Z,50.05
2018-06-21T03:53:32.478Z,50.11
2018-06-21T03:54:32.952Z,50.02
2018-06-21T03:55:33.421Z,49.93
2018-06-21T03:56:33.895Z,50.14
2018-06-21T03:57:34.364Z,50.21
2018-06-21T03:58:34.838Z,50.36
2018-06-21T03:59:35.310Z,50.58
2018-06-21T04:00:35.837Z,50.86
2018-06-21T04:01:36.253Z,50.46
2018-06-21T04:02:36.725Z,50.27
2018-06-21T04:03:37.197Z,50.74
2018-06-21T04:04:37.668Z,50.65
2018-06-21T04:05:38.190Z,50.62
2018-06-21T04:06:38.611Z,50.77
2018-06-21T04:07:39.085Z,50.56
2018-06-21T04:08:39.555Z,50.09
2018-06-21T04:09:40.027Z,50.47
2018-06-21T04:10:40.496Z,50.19
2018-06-21T04:11:40.969Z,50.32
2018-06-21T04:12:41.440Z,50.32
2018-06-21T04:13:41.915Z,50.01
2018-06-21T04:14:42.386Z,50.01
2018-06-21T04:15:42.908Z,50.14
2018-06-21T04:16:43.329Z,49.95
2018-06-21T04:17:43.800Z,49.96
2018-06-21T04:18:44.277Z,49.86
2018-06-21T04:19:44.746Z,49.77
2018-06-21T04:20:45.220Z,49.86
2018-06-21T04:21:45.692Z,49.84
2018-06-21T04:22:46.164Z,49.87
2018-06-21T04:23:46.642Z,49.78
2018-06-21T04:24:47.112Z,49.72
2018-06-21T04:25:47.636Z,49.66
2018-06-21T04:26:48.061Z,49.84
2018-06-21T04:27:48.540Z,49.91
2018-06-21T04:28:49.012Z,49.94
2018-06-21T04:29:49.488Z,49.97
2018-06-21T04:30:49.965Z,50.13
2018-06-21T04:31:50.437Z,50.10
2018-06-21T04:32:50.915Z,50.32
2018-06-21T04:33:51.386Z,50.29
2018-06-21T04:34:51.864Z,50.36
2018-06-21T04:35:52.428Z,50.36
2018-06-21T04:36:52.816Z,50.64
2018-06-21T04:37:53.349Z,50.89
2018-06-21T04:38:53.768Z,50.92
2018-06-21T04:39:54.245Z,50.86
2018-06-21T04:40:54.772Z,50.86
2018-06-21T04:41:55.196Z,51.18
2018-06-21T04:42:55.673Z,51.18
2018-06-21T04:43:56.150Z,51.22
2018-06-21T04:44:56.629Z,51.53
2018-06-21T04:45:57.213Z,51.40
2018-06-21T04:46:57.578Z,51.25
2018-06-21T04:47:58.055Z,51.53
2018-06-21T04:48:58.531Z,51.65
2018-06-21T04:49:59.005Z,51.69
2018-06-21T04:50:59.486Z,51.81
2018-06-21T04:51:59.958Z,51.75
2018-06-21T04:53:00.433Z,52.06
2018-06-21T04:54:00.911Z,51.97
2018-06-21T04:55:01.384Z,52.06
2018-06-21T04:56:01.862Z,52.07
2018-06-21T04:57:02.339Z,52.06
2018-06-21T04:58:02.812Z,52.13
2018-06-21T04:59:03.286Z,52.06
2018-06-21T05:00:03.833Z,52.19
2018-06-21T05:01:04.239Z,52.19
2018-06-21T05:02:04.711Z,52.28
2018-06-21T05:03:05.187Z,52.50
2018-06-21T05:04:05.660Z,52.46
2018-06-21T05:05:06.136Z,52.53
2018-06-21T05:06:06.661Z,52.53
2018-06-21T05:07:07.085Z,52.89
2018-06-21T05:08:07.559Z,53.08
2018-06-21T05:09:08.033Z,53.14
2018-06-21T05:10:08.509Z,53.26
2018-06-21T05:11:09.031Z,53.19
2018-06-21T05:12:09.455Z,53.25
2018-06-21T05:13:09.930Z,53.44
2018-06-21T05:14:10.405Z,53.43
2018-06-21T05:15:10.875Z,53.46
2018-06-21T05:16:11.349Z,53.70
2018-06-21T05:17:11.821Z,53.64
2018-06-21T05:18:12.311Z,53.76
2018-06-21T05:19:12.770Z,53.76
2018-06-21T05:20:13.244Z,54.00
2018-06-21T05:21:13.766Z,54.12
2018-06-21T05:22:14.187Z,54.11
2018-06-21T05:23:14.660Z,54.08
2018-06-21T05:24:15.134Z,54.14
2018-06-21T05:25:15.606Z,54.20
2018-06-21T05:26:16.131Z,54.20
2018-06-21T05:27:16.553Z,54.34
2018-06-21T05:28:17.024Z,54.52
2018-06-21T05:29:17.497Z,54.61
2018-06-21T05:30:17.967Z,54.64
2018-06-21T05:31:18.442Z,54.85
2018-06-21T05:32:18.914Z,55.12
2018-06-21T05:33:19.385Z,55.08
2018-06-21T05:34:19.858Z,55.11
2018-06-21T05:35:20.328Z,55.38
2018-06-21T05:36:20.865Z,55.50
2018-06-21T05:37:21.275Z,55.58
2018-06-21T05:38:21.746Z,55.76
2018-06-21T05:39:22.216Z,55.73
2018-06-21T05:40:22.688Z,55.87
2018-06-21T05:41:23.211Z,55.96
2018-06-21T05:42:23.630Z,56.05
2018-06-21T05:43:24.104Z,56.23
2018-06-21T05:44:24.635Z,56.28
2018-06-21T05:45:25.049Z,56.34
2018-06-21T05:46:25.568Z,56.40
2018-06-21T05:47:25.991Z,56.75
2018-06-21T05:48:26.463Z,56.93
2018-06-21T05:49:26.933Z,56.86
2018-06-21T05:50:27.405Z,57.07
2018-06-21T05:51:27.876Z,56.98
2018-06-21T05:52:28.349Z,56.95
2018-06-21T05:53:28.820Z,57.18
2018-06-21T05:54:29.293Z,57.09
2018-06-21T05:55:29.765Z,57.09
2018-06-21T05:56:30.238Z,57.15
2018-06-21T05:57:30.711Z,57.18
2018-06-21T05:58:31.184Z,57.26
2018-06-21T05:59:31.658Z,57.14
2018-06-21T06:00:32.138Z,57.08
2018-06-21T06:01:32.611Z,57.14
2018-06-21T06:02:33.078Z,57.26
2018-06-21T06:03:33.555Z,57.29
2018-06-21T06:04:34.031Z,57.26
2018-06-21T06:05:34.504Z,57.35
2018-06-21T06:06:34.978Z,57.23
2018-06-21T06:07:35.453Z,57.38
2018-06-21T06:08:35.959Z,57.47
2018-06-21T06:09:36.404Z,57.38
2018-06-21T06:10:36.882Z,57.47
2018-06-21T06:11:37.407Z,57.38
2018-06-21T06:12:37.833Z,57.29
2018-06-21T06:13:38.309Z,57.32
2018-06-21T06:14:38.782Z,57.53
2018-06-21T06:15:39.257Z,57.50
2018-06-21T06:16:39.734Z,57.32
2018-06-21T06:17:40.209Z,57.38
2018-06-21T06:18:40.686Z,57.41
2018-06-21T06:19:41.165Z,57.33
2018-06-21T06:20:41.639Z,57.33
2018-06-21T06:21:42.113Z,57.51
2018-06-21T06:22:42.589Z,57.50
2018-06-21T06:23:43.065Z,57.50
2018-06-21T06:24:43.543Z,57.44
2018-06-21T06:25:44.015Z,57.39
2018-06-21T06:26:44.542Z,57.39
2018-06-21T06:27:44.966Z,57.39
2018-06-21T06:28:45.522Z,57.33
2018-06-21T06:29:45.918Z,57.45
2018-06-21T06:30:46.391Z,57.42
2018-06-21T06:31:46.917Z,57.45
2018-06-21T06:32:47.349Z,57.39
2018-06-21T06:33:47.827Z,57.81
2018-06-21T06:34:48.473Z,57.60
2018-06-21T06:35:48.765Z,57.66
2018-06-21T06:36:49.242Z,57.63
2018-06-21T06:37:49.716Z,57.54
2018-06-21T06:38:50.192Z,57.51
2018-06-21T06:39:50.665Z,57.63
2018-06-21T06:40:51.137Z,57.63
2018-06-21T06:41:51.611Z,57.54
2018-06-21T06:42:52.088Z,57.54
2018-06-21T06:43:52.559Z,57.71
2018-06-21T06:44:53.033Z,57.69
2018-06-21T06:45:53.514Z,57.65
2018-06-21T06:46:53.980Z,57.77
2018-06-21T06:47:54.452Z,57.77
2018-06-21T06:48:54.926Z,57.65
2018-06-21T06:49:55.399Z,57.68
2018-06-21T06:50:55.872Z,57.86
2018-06-21T06:51:56.395Z,57.95
2018-06-21T06:52:56.819Z,57.98
2018-06-21T06:53:57.291Z,57.88
2018-06-21T06:54:57.763Z,57.82
2018-06-21T06:55:58.236Z,57.92
2018-06-21T06:56:58.711Z,57.91
2018-06-21T06:57:59.181Z,58.00
2018-06-21T06:58:59.653Z,58.00
2018-06-21T07:00:00.126Z,57.94
2018-06-21T07:01:00.599Z,57.88
2018-06-21T07:02:01.121Z,57.98
2018-06-21T07:03:01.542Z,58.00
2018-06-21T07:04:02.015Z,58.09
2018-06-21T07:05:02.487Z,58.24
2018-06-21T07:06:02.963Z,58.15
2018-06-21T07:07:03.433Z,58.27
2018-06-21T07:08:03.921Z,58.18
2018-06-21T07:09:04.373Z,58.42
2018-06-21T07:10:04.846Z,58.47
2018-06-21T07:11:05.317Z,58.47
2018-06-21T07:12:05.788Z,58.47
2018-06-21T07:13:06.259Z,58.47
2018-06-21T07:14:06.798Z,58.35
2018-06-21T07:15:07.203Z,58.38
2018-06-21T07:16:07.676Z,58.41
2018-06-21T07:17:08.151Z,58.50
2018-06-21T07:18:08.623Z,58.44
2018-06-21T07:19:09.090Z,58.38
2018-06-21T07:20:09.565Z,58.47
2018-06-21T07:21:10.037Z,58.44
2018-06-21T07:22:10.559Z,58.50
2018-06-21T07:23:10.986Z,58.49
2018-06-21T07:24:11.454Z,58.64
2018-06-21T07:25:11.928Z,58.76
2018-06-21T07:26:12.401Z,58.58
2018-06-21T07:27:13.005Z,58.55
2018-06-21T07:28:13.348Z,58.52
2018-06-21T07:29:13.820Z,58.49
2018-06-21T07:30:14.297Z,58.61
2018-06-21T07:31:14.770Z,58.61
2018-06-21T07:32:15.246Z,58.58
2018-06-21T07:33:15.720Z,58.61
2018-06-21T07:34:16.196Z,58.67
2018-06-21T07:35:16.668Z,58.91
2018-06-21T07:36:17.144Z,58.91
2018-06-21T07:37:17.678Z,58.94
2018-06-21T07:38:18.096Z,58.85
2018-06-21T07:39:18.569Z,58.70
2018-06-21T07:40:19.048Z,58.73
2018-06-21T07:41:19.521Z,58.76
2018-06-21T07:42:20.048Z,58.85
2018-06-21T07:43:20.476Z,58.74
2018-06-21T07:44:20.948Z,58.68
2018-06-21T07:45:21.426Z,58.68
2018-06-21T07:46:21.907Z,58.56
2018-06-21T07:47:22.377Z,58.53
2018-06-21T07:48:22.856Z,58.47
2018-06-21T07:49:23.329Z,58.48
2018-06-21T07:50:23.805Z,58.45
2018-06-21T07:51:24.280Z,58.36
2018-06-21T07:52:24.758Z,58.45
2018-06-21T07:53:25.237Z,58.28
2018-06-21T07:54:25.710Z,58.21
2018-06-21T07:55:26.186Z,58.19
2018-06-21T07:56:26.659Z,58.10
2018-06-21T07:57:27.133Z,58.04
2018-06-21T07:58:27.607Z,57.93
2018-06-21T07:59:28.084Z,57.99
2018-06-21T08:00:28.557Z,57.96
2018-06-21T08:01:29.106Z,57.87
2018-06-21T08:02:29.559Z,57.75
2018-06-21T08:03:29.980Z,57.73
2018-06-21T08:04:30.463Z,57.70
2018-06-21T08:05:30.934Z,57.61
2018-06-21T08:06:31.406Z,57.67
2018-06-21T08:07:31.878Z,57.56
2018-06-21T08:08:32.354Z,57.47
2018-06-21T08:09:32.826Z,57.47
2018-06-21T08:10:33.301Z,57.44
2018-06-21T08:11:33.776Z,57.41
2018-06-21T08:12:34.250Z,57.48
2018-06-21T08:13:34.729Z,57.42
2018-06-21T08:14:35.195Z,57.25
2018-06-21T08:15:35.674Z,57.16
2018-06-21T08:16:36.144Z,57.16
2018-06-21T08:17:36.616Z,57.08
2018-06-21T08:18:37.089Z,57.02
2018-06-21T08:19:37.564Z,56.94
2018-06-21T08:20:38.038Z,56.82
2018-06-21T08:21:38.524Z,56.82
2018-06-21T08:22:38.983Z,56.74
2018-06-21T08:23:39.455Z,56.68
2018-06-21T08:24:39.928Z,56.69
2018-06-21T08:25:40.401Z,56.51
2018-06-21T08:26:40.916Z,56.49
2018-06-21T08:27:41.397Z,56.43
2018-06-21T08:28:41.820Z,56.34
2018-06-21T08:29:42.497Z,56.47
2018-06-21T08:30:42.767Z,56.26
2018-06-21T08:31:43.241Z,56.27
2018-06-21T08:32:43.759Z,56.27
2018-06-21T08:33:44.181Z,56.28
2018-06-21T08:34:44.655Z,56.13
2018-06-21T08:35:45.469Z,56.05
2018-06-21T08:36:45.598Z,56.00
2018-06-21T08:37:46.072Z,56.09
2018-06-21T08:38:46.557Z,55.80
2018-06-21T08:39:47.014Z,55.96
2018-06-21T08:40:47.490Z,55.82
2018-06-21T08:41:47.958Z,55.58
2018-06-21T08:42:48.435Z,55.44
2018-06-21T08:43:48.902Z,55.42
2018-06-21T08:44:49.376Z,55.31
2018-06-21T08:45:49.876Z,55.05
2018-06-21T08:46:50.320Z,54.84
2018-06-21T08:47:50.791Z,54.61
2018-06-21T08:48:51.264Z,54.43
2018-06-21T08:49:51.736Z,54.32
2018-06-21T08:50:52.208Z,54.18
2018-06-21T08:51:52.728Z,54.12
2018-06-21T08:52:53.207Z,53.85
2018-06-21T08:53:53.626Z,53.74
2018-06-21T08:54:54.097Z,53.57
2018-06-21T08:55:54.569Z,53.48
2018-06-21T08:56:55.043Z,53.34
2018-06-21T08:57:55.567Z,53.34
2018-06-21T08:58:55.990Z,53.23
2018-06-21T08:59:56.463Z,53.27
2018-06-21T09:00:56.943Z,53.06
2018-06-21T09:01:57.420Z,52.91
2018-06-21T09:02:57.893Z,52.89
2018-06-21T09:03:58.356Z,52.77
2018-06-21T09:04:58.833Z,52.72
2018-06-21T09:05:59.311Z,52.63
2018-06-21T09:06:59.785Z,52.64
2018-06-21T09:08:00.259Z,52.51
2018-06-21T09:09:00.733Z,52.58
2018-06-21T09:10:01.210Z,52.47
2018-06-21T09:11:01.686Z,52.41
2018-06-21T09:12:02.161Z,52.50
2018-06-21T09:13:02.687Z,52.51
2018-06-21T09:14:03.115Z,52.39
2018-06-21T09:15:03.592Z,52.33
2018-06-21T09:16:04.068Z,52.33
2018-06-21T09:17:04.545Z,52.37
2018-06-21T09:18:05.073Z,52.34
2018-06-21T09:19:05.499Z,52.34
2018-06-21T09:20:05.977Z,52.31
2018-06-21T09:21:06.497Z,52.41
2018-06-21T09:22:06.928Z,52.47
2018-06-21T09:23:07.406Z,52.42
2018-06-21T09:24:07.885Z,52.39
2018-06-21T09:25:08.357Z,52.36
2018-06-21T09:26:08.835Z,52.36
2018-06-21T09:27:09.359Z,52.31
2018-06-21T09:28:09.787Z,52.31
2018-06-21T09:29:10.265Z,52.34
2018-06-21T09:30:10.742Z,52.28
2018-06-21T09:31:11.219Z,52.29
2018-06-21T09:32:11.694Z,52.20
2018-06-21T09:33:12.192Z,52.20
2018-06-21T09:34:12.649Z,52.14
2018-06-21T09:35:13.126Z,52.11
2018-06-21T09:36:13.600Z,52.09
2018-06-21T09:37:14.077Z,51.99
2018-06-21T09:38:14.553Z,52.00
2018-06-21T09:39:15.030Z,51.94
2018-06-21T09:40:15.505Z,51.91
2018-06-21T09:41:15.981Z,51.98
2018-06-21T09:42:16.462Z,51.86
2018-06-21T09:43:16.986Z,51.86
2018-06-21T09:44:17.408Z,51.90
2018-06-21T09:45:17.884Z,51.90
2018-06-21T09:46:18.362Z,51.87
2018-06-21T09:47:18.837Z,51.88
2018-06-21T09:48:19.362Z,51.85
2018-06-21T09:49:19.787Z,51.76
2018-06-21T09:50:20.261Z,51.77
2018-06-21T09:51:20.740Z,51.77
2018-06-21T09:52:21.217Z,51.71
2018-06-21T09:53:21.737Z,51.77
2018-06-21T09:54:22.164Z,51.78
2018-06-21T09:55:22.638Z,51.81
2018-06-21T09:56:23.114Z,51.72
2018-06-21T09:57:23.590Z,51.75
2018-06-21T09:58:24.064Z,51.60
2018-06-21T09:59:24.539Z,51.61
2018-06-21T10:00:25.015Z,51.49
2018-06-21T10:01:25.491Z,51.40
2018-06-21T10:02:25.965Z,51.30
2018-06-21T10:03:26.488Z,51.31
2018-06-21T10:04:26.914Z,51.31
2018-06-21T10:05:27.388Z,51.19
2018-06-21T10:06:27.862Z,51.07
2018-06-21T10:07:28.338Z,50.98
2018-06-21T10:08:28.913Z,51.01
2018-06-21T10:09:29.290Z,51.04
2018-06-21T10:10:29.762Z,50.41
2018-06-21T10:11:30.235Z,50.32
2018-06-21T10:12:30.713Z,50.74
2018-06-21T10:13:31.186Z,50.61
2018-06-21T10:14:31.659Z,50.55
2018-06-21T10:15:32.134Z,50.68
2018-06-21T10:16:32.606Z,50.68
2018-06-21T10:17:33.082Z,50.71
2018-06-21T10:18:33.610Z,50.81
2018-06-21T10:19:34.030Z,50.91
2018-06-21T10:20:34.537Z,50.94
2018-06-21T10:21:34.977Z,51.00
2018-06-21T10:22:35.453Z,50.98
2018-06-21T10:23:35.981Z,51.04
2018-06-21T10:24:36.401Z,51.10
2018-06-21T10:25:36.876Z,51.11
2018-06-21T10:26:37.349Z,51.11
2018-06-21T10:27:37.825Z,51.11
2018-06-21T10:28:38.346Z,51.20
2018-06-21T10:29:38.770Z,51.18
2018-06-21T10:30:39.245Z,51.18
2018-06-21T10:31:39.723Z,51.24
2018-06-21T10:32:40.191Z,51.24
2018-06-21T10:33:40.715Z,51.30
2018-06-21T10:34:41.140Z,51.37
2018-06-21T10:35:41.614Z,51.43
2018-06-21T10:36:42.087Z,51.46
2018-06-21T10:37:42.560Z,51.50
2018-06-21T10:38:43.034Z,51.53
2018-06-21T10:39:43.509Z,51.56
2018-06-21T10:40:43.979Z,51.56
2018-06-21T10:41:44.455Z,51.57
2018-06-21T10:42:44.927Z,51.53
2018-06-21T10:43:45.403Z,51.63
2018-06-21T10:44:45.875Z,51.48
2018-06-21T10:45:46.348Z,51.01
2018-06-21T10:46:46.828Z,51.13
2018-06-21T10:47:47.298Z,50.92
2018-06-21T10:48:47.770Z,51.01
2018-06-21T10:49:48.244Z,51.20
2018-06-21T10:50:48.717Z,51.33
2018-06-21T10:51:49.192Z,50.89
2018-06-21T10:52:49.670Z,50.70
2018-06-21T10:53:50.149Z,50.29
2018-06-21T10:54:50.613Z,50.73
2018-06-21T10:55:51.084Z,51.05
2018-06-21T10:56:51.558Z,51.02
2018-06-21T10:57:52.031Z,50.87
2018-06-21T10:58:52.555Z,50.96
2018-06-21T10:59:52.979Z,50.93
2018-06-21T11:00:53.453Z,50.90
2018-06-21T11:01:53.926Z,51.13
2018-06-21T11:02:54.399Z,51.16
2018-06-21T11:03:54.876Z,51.26
2018-06-21T11:04:55.344Z,51.19
2018-06-21T11:05:55.819Z,51.23
2018-06-21T11:06:56.292Z,50.79
2018-06-21T11:07:56.768Z,50.89
2018-06-21T11:08:57.290Z,50.89
2018-06-21T11:09:57.714Z,51.18
2018-06-21T11:10:58.188Z,51.24
2018-06-21T11:11:58.662Z,51.34
2018-06-21T11:12:59.135Z,51.37
2018-06-21T11:13:59.658Z,51.34
2018-06-21T11:15:00.092Z,51.38
2018-06-21T11:16:00.557Z,51.38
2018-06-21T11:17:01.043Z,51.54
2018-06-21T11:18:01.502Z,51.57
2018-06-21T11:19:02.025Z,51.64
2018-06-21T11:20:02.449Z,51.55
2018-06-21T11:21:02.922Z,51.52
2018-06-21T11:22:03.397Z,51.65
2018-06-21T11:23:03.869Z,51.68
2018-06-21T11:24:04.393Z,51.40
2018-06-21T11:25:04.818Z,50.59
2018-06-21T11:26:05.291Z,50.62
2018-06-21T11:27:05.765Z,50.94
2018-06-21T11:28:06.298Z,51.04
2018-06-21T11:29:06.716Z,51.23
2018-06-21T11:30:07.187Z,51.30
2018-06-21T11:31:07.657Z,51.24
2018-06-21T11:32:08.131Z,51.30
2018-06-21T11:33:08.605Z,51.15
2018-06-21T11:34:09.080Z,51.25
2018-06-21T11:35:09.553Z,51.41
2018-06-21T11:36:10.027Z,51.38
2018-06-21T11:37:10.500Z,51.32
2018-06-21T11:38:11.023Z,51.35
2018-06-21T11:39:11.499Z,51.39
2018-06-21T11:40:11.924Z,51.46
2018-06-21T11:41:12.395Z,51.43
2018-06-21T11:42:12.868Z,51.49
2018-06-21T11:43:13.356Z,51.53
2018-06-21T11:44:13.817Z,51.50
2018-06-21T11:45:14.293Z,51.53
2018-06-21T11:46:14.765Z,51.51
2018-06-21T11:47:15.240Z,51.45
2018-06-21T11:48:15.714Z,51.35
2018-06-21T11:49:16.187Z,51.29
2018-06-21T11:50:16.660Z,51.30
2018-06-21T11:51:17.135Z,51.30
2018-06-21T11:52:17.624Z,51.36
2018-06-21T11:53:18.082Z,51.37
2018-06-21T11:54:18.607Z,51.18
2018-06-21T11:55:19.029Z,50.84
2018-06-21T11:56:19.503Z,50.90
2018-06-21T11:57:19.978Z,50.94
2018-06-21T11:58:20.451Z,50.56
2018-06-21T11:59:20.925Z,50.50
2018-06-21T12:00:21.399Z,50.57
2018-06-21T12:01:21.874Z,50.73
2018-06-21T12:02:22.347Z,51.08
2018-06-21T12:03:22.858Z,51.08
2018-06-21T12:04:23.296Z,51.05
2018-06-21T12:05:23.768Z,51.02
2018-06-21T12:06:24.245Z,50.87
2018-06-21T12:07:24.716Z,50.77
2018-06-21T12:08:25.192Z,50.81
2018-06-21T12:09:25.665Z,50.81
2018-06-21T12:10:26.138Z,50.71
2018-06-21T12:11:26.614Z,50.75
2018-06-21T12:12:27.091Z,50.72
2018-06-21T12:13:27.562Z,50.75
2018-06-21T12:14:28.035Z,50.91
2018-06-21T12:15:28.512Z,51.17
2018-06-21T12:16:28.984Z,51.17
2018-06-21T12:17:29.460Z,51.17
2018-06-21T12:18:29.930Z,51.11
2018-06-21T12:19:30.406Z,51.08
2018-06-21T12:20:30.879Z,51.05
2018-06-21T12:21:31.353Z,51.18
2018-06-21T12:22:31.829Z,51.18
2018-06-21T12:23:32.303Z,51.12
2018-06-21T12:24:32.833Z,51.15
2018-06-21T12:25:33.251Z,51.19
2018-06-21T12:26:33.725Z,51.19
2018-06-21T12:27:34.198Z,51.20
2018-06-21T12:28:34.672Z,51.23
2018-06-21T12:29:35.148Z,51.30
2018-06-21T12:30:35.621Z,51.21
2018-06-21T12:31:36.096Z,51.21
2018-06-21T12:32:36.572Z,51.34
2018-06-21T12:33:37.045Z,51.31
2018-06-21T12:34:37.569Z,51.31
2018-06-21T12:35:37.999Z,51.28
2018-06-21T12:36:38.468Z,51.35
2018-06-21T12:37:38.942Z,51.32
2018-06-21T12:39:39.892Z,51.22
2018-06-21T12:40:40.368Z,51.10
2018-06-21T12:41:40.840Z,51.23
2018-06-21T12:42:41.315Z,51.16
2018-06-21T12:43:41.855Z,51.13
2018-06-21T12:44:42.313Z,51.23
2018-06-21T12:45:42.737Z,51.48
2018-06-21T12:46:43.211Z,51.60
2018-06-21T12:47:43.689Z,51.70
2018-06-21T12:48:44.159Z,52.17
2018-06-21T12:49:44.634Z,52.23
2018-06-21T12:50:45.111Z,52.61
2018-06-21T12:51:45.582Z,52.89
2018-06-21T12:52:46.058Z,53.01
2018-06-21T12:53:46.531Z,53.07
2018-06-21T12:54:47.011Z,53.29
2018-06-21T12:55:47.478Z,53.41
2018-06-21T12:56:47.954Z,53.57
2018-06-21T12:57:48.427Z,53.66
2018-06-21T12:58:48.902Z,53.66
2018-06-21T12:59:49.376Z,53.97